Banks, Alabama
Current Conditions -  °F | °C
As of 10:53 AM on Tuesday 27 Jan 2015 (Local Time) from KTOI Reporting Station
Clear Clear  
Wind Chill: 57°   Ceiling: Unl
Heat Index: 57°   Visibility: 10mi
Dew Point: 35°   Wind: 14mph
Humidity: 44%   Direction: 310°NW
Pressure: 30.04"   Gusts: 20mph
Location:  31.82°N, 85.84°W
Report Text: KTOI 271653Z AUTO 31012G17KT 10SM CLR 14/02 A3004 RMK AO2 SLP170 T01390017
Loading
Personal Weather Stations






























Interactive Weather Map New forecast layout! Learn more

10-Day Weather Forecast

Advertisements
Track Severe Weather on mobile